Time;durP1;ratioP1;P1;durP2;ratioP2;P2;SDS_P1;SDS_P2;PMS_P1;PMS_P2;Temp;Humidity;BMP_temperature;BMP_pressure;BME280_temperature;BME280_humidity;BME280_pressure;Samples;Min_cycle;Max_cycle;Signal;HPM_P1;HPM_P2
2023/08/30 16:34:33;;;;;;;;;4.00;2.00;;;;;22.84;39.88;100835.06;2054294;27;2734673;-82
2023/08/30 16:35:46;;;;;;;;;2.17;2.17;;;;;22.84;39.90;100840.41;2031186;27;2741959;-81
2023/08/30 16:36:59;;;;;;;;;3.00;3.00;;;;;22.85;40.06;100841.28;2036528;27;2739403;-82
2023/08/30 16:38:10;;;;;;;;;6.67;3.00;;;;;22.84;39.62;100840.41;2005683;27;2741958;-81
2023/08/30 16:39:21;;;;;;;;;2.33;2.33;;;;;22.84;39.73;100840.41;2055789;27;2739871;-82
2023/08/30 16:40:31;;;;;;;;;5.67;3.00;;;;;22.84;39.30;100843.09;2030495;27;2749235;-82
2023/08/30 16:41:43;;;;;;;;;3.00;3.00;;;;;22.84;39.73;100840.41;2050406;27;2734684;-82
2023/08/30 16:42:53;;;;;;;;;2.00;2.00;;;;;22.84;39.25;100835.06;2034965;27;2739875;-82
2023/08/30 16:44:04;;;;;;;;;1.00;1.00;;;;;22.82;39.58;100835.19;2060265;27;2722219;-82
2023/08/30 16:45:15;;;;;;;;;2.33;2.00;;;;;22.83;39.85;100838.75;2028474;27;2751408;-82
2023/08/30 16:46:26;;;;;;;;;6.00;3.00;;;;;22.82;39.83;100829.84;2043759;27;2750369;-82
2023/08/30 16:47:37;;;;;;;;;4.00;2.00;;;;;22.82;39.57;100835.19;2057679;27;2729472;-82
2023/08/30 16:48:51;;;;;;;;;2.67;2.17;;;;;22.83;40.02;100838.75;2037979;27;2737777;-80
2023/08/30 16:50:02;;;;;;;;;3.67;3.00;;;;;22.83;39.68;100836.06;2006061;27;2742066;-80
2023/08/30 16:51:15;;;;;;;;;3.33;2.33;;;;;22.82;39.96;100837.88;2058748;27;2731607;-80
2023/08/30 16:52:25;;;;;;;;;2.00;2.00;;;;;22.82;39.80;100829.84;2008259;27;2741952;-80
2023/08/30 16:53:36;;;;;;;;;4.00;2.00;;;;;22.82;39.67;100831.66;2040653;27;2750296;-81
2023/08/30 16:54:47;;;;;;;;;2.00;2.00;;;;;22.82;40.17;100839.69;2059929;27;2746137;-80
2023/08/30 16:56:02;;;;;;;;;3.67;2.33;;;;;22.81;39.54;100835.34;2009326;27;2754532;-80
2023/08/30 16:57:15;;;;;;;;;2.00;2.00;;;;;22.81;39.97;100833.53;2055879;27;2745052;-82
2023/08/30 16:58:29;;;;;;;;;1.83;1.00;;;;;22.82;40.27;100837.03;2037956;27;2734184;-82
2023/08/30 16:59:43;;;;;;;;;2.00;2.00;;;;;22.81;39.76;100829.97;2034998;27;2744012;-82
2023/08/30 17:00:57;;;;;;;;;1.33;1.33;;;;;22.81;39.61;100832.66;2031598;27;2729433;-82
2023/08/30 17:02:07;;;;;;;;;2.00;2.00;;;;;22.81;39.90;100840.69;2011084;27;2752399;-81
2023/08/30 17:03:18;;;;;;;;;2.00;2.00;;;;;22.80;39.14;100836.31;2042742;27;2744115;-82
2023/08/30 17:04:29;;;;;;;;;3.00;3.00;;;;;22.79;39.63;100823.91;2051662;27;2737802;-81
2023/08/30 17:05:40;;;;;;;;;3.00;3.00;;;;;22.79;40.13;100834.63;2006141;27;2744031;-82
2023/08/30 17:06:51;;;;;;;;;2.00;2.00;;;;;22.80;39.58;100833.63;2057522;27;2732645;-81
2023/08/30 17:08:04;;;;;;;;;2.00;2.00;;;;;22.78;39.97;100830.22;2033002;27;2750323;-81
2023/08/30 17:09:17;;;;;;;;;3.00;2.50;;;;;22.79;39.89;100839.97;2036407;27;2750297;-81
2023/08/30 17:10:31;;;;;;;;;2.83;2.33;;;;;22.79;39.61;100831.94;2035881;27;2744381;-81
2023/08/30 17:11:43;;;;;;;;;3.00;2.67;;;;;22.78;39.76;100840.94;2010557;27;2749332;-82
2023/08/30 17:12:57;;;;;;;;;3.33;2.00;;;;;22.79;39.44;100834.63;2032853;27;2752425;-81
2023/08/30 17:14:11;;;;;;;;;3.33;2.00;;;;;22.76;39.05;100830.38;2055732;27;2746114;-82
2023/08/30 17:15:26;;;;;;;;;2.00;2.00;;;;;22.77;39.67;100844.59;2035951;27;2735017;-81
2023/08/30 17:16:40;;;;;;;;;3.00;3.00;;;;;22.77;40.12;100842.78;2039289;27;2741948;-81
2023/08/30 17:17:53;;;;;;;;;2.67;2.00;;;;;22.76;40.11;100835.72;2042176;27;2726323;-81
2023/08/30 17:19:06;;;;;;;;;3.33;3.33;;;;;22.76;40.21;100843.78;2036732;27;2735730;-81
2023/08/30 17:20:19;;;;;;;;;4.33;3.00;;;;;22.76;39.63;100845.59;2036691;27;2736874;-82
2023/08/30 17:21:30;;;;;;;;;2.00;2.00;;;;;22.76;39.33;100843.78;2005252;28;2736750;-82
2023/08/30 17:22:42;;;;;;;;;2.00;2.00;;;;;22.76;39.53;100843.78;2057096;27;2740898;-82
2023/08/30 17:23:53;;;;;;;;;4.00;4.00;;;;;22.77;39.54;100849.94;2034168;27;2739875;-81
2023/08/30 17:25:04;;;;;;;;;5.00;3.00;;;;;22.76;39.58;100848.28;2050104;27;2753488;-83
2023/08/30 17:26:18;;;;;;;;;3.00;3.00;;;;;22.77;39.60;100855.31;2061209;27;2739881;-83
2023/08/30 17:27:31;;;;;;;;;4.50;3.00;;;;;22.76;39.29;100848.28;2055756;27;2738817;-83
2023/08/30 17:28:45;;;;;;;;;2.67;2.67;;;;;22.76;39.29;100845.59;2038132;27;2739854;-81
2023/08/30 17:29:55;;;;;;;;;4.67;3.33;;;;;22.76;39.35;100848.28;2010440;27;2752377;-82
2023/08/30 17:31:06;;;;;;;;;3.00;3.00;;;;;22.75;40.04;100850.09;2043220;27;2744034;-81
2023/08/30 17:32:17;;;;;;;;;3.00;3.00;;;;;22.74;40.02;100844.88;2042893;27;2748213;-81
2023/08/30 17:33:31;;;;;;;;;2.00;2.00;;;;;22.75;39.78;100854.59;2060672;27;2742028;-80
2023/08/30 17:34:47;;;;;;;;;6.50;4.00;;;;;22.76;40.29;100853.63;2062086;27;2747517;-81
2023/08/30 17:36:04;;;;;;;;;2.33;2.33;;;;;22.76;40.07;100856.31;2034532;27;2727879;-81
2023/08/30 17:37:17;;;;;;;;;2.83;2.83;;;;;22.76;40.30;100853.63;2032883;27;2744038;-81
2023/08/30 17:38:28;;;;;;;;;4.00;2.33;;;;;22.75;39.24;100846.56;2005080;27;2746135;-80
2023/08/30 17:39:39;;;;;;;;;2.00;2.00;;;;;22.76;39.46;100853.63;2051570;27;2746111;-81
2023/08/30 17:40:50;;;;;;;;;2.00;2.00;;;;;22.74;39.71;100847.56;2046777;27;2751318;-81
2023/08/30 17:42:00;;;;;;;;;4.00;4.00;;;;;22.74;39.74;100850.22;2047388;27;2754529;-81
2023/08/30 17:43:12;;;;;;;;;4.50;3.00;;;;;22.74;39.52;100850.22;2052018;27;2735679;-81
2023/08/30 17:44:23;;;;;;;;;3.00;2.00;;;;;22.73;39.74;100852.06;2034275;27;2750285;-82
2023/08/30 17:45:34;;;;;;;;;2.00;2.00;;;;;22.73;39.34;100851.19;2058700;27;2745100;-82
2023/08/30 17:46:47;;;;;;;;;5.17;3.00;;;;;22.74;39.61;100855.59;2053996;27;2746114;-81
2023/08/30 17:48:01;;;;;;;;;2.50;2.50;;;;;22.72;39.41;100854.88;2030291;27;2733631;-80
2023/08/30 17:49:11;;;;;;;;;2.00;2.00;;;;;22.72;39.71;100868.28;2007678;27;2750273;-81
2023/08/30 17:50:22;;;;;;;;;3.00;3.00;;;;;22.70;39.79;100866.56;2058473;27;2736732;-80
2023/08/30 17:51:32;;;;;;;;;2.67;2.67;;;;;22.70;39.75;100861.19;2033896;27;2742977;-81
2023/08/30 17:52:43;;;;;;;;;3.00;3.00;;;;;22.71;39.60;100870.09;2051728;27;2729435;-80
2023/08/30 17:53:57;;;;;;;;;4.67;2.67;;;;;22.69;39.98;100869.38;2061122;27;2739883;-80
2023/08/30 17:55:08;;;;;;;;;3.00;3.00;;;;;22.69;40.31;100872.88;2006203;27;2749315;-80
2023/08/30 17:56:24;;;;;;;;;4.33;2.00;;;;;22.67;39.55;100872.13;2060745;27;2728406;-79
2023/08/30 17:57:35;;;;;;;;;3.33;3.33;;;;;22.66;40.28;100869.59;2011534;27;2744486;-80
2023/08/30 17:58:49;;;;;;;;;2.33;2.33;;;;;22.66;39.73;100873.13;2059234;27;2733654;-80
2023/08/30 17:59:59;;;;;;;;;3.33;3.33;;;;;22.66;40.14;100872.25;2009648;27;2744799;-81
2023/08/30 18:01:10;;;;;;;;;3.00;3.00;;;;;22.66;39.82;100870.44;2056292;27;2741940;-81
2023/08/30 18:02:20;;;;;;;;;3.00;3.00;;;;;22.66;39.68;100875.81;2011941;27;2748210;-80
2023/08/30 18:03:31;;;;;;;;;4.33;2.33;;;;;22.65;39.19;100874.09;2051123;27;2745077;-78
2023/08/30 18:04:42;;;;;;;;;4.00;3.00;;;;;22.63;39.67;100870.69;2048748;27;2741994;-78
2023/08/30 18:06:07;;;;;;;;;3.33;2.33;;;;;22.63;39.94;100872.50;2060294;27;2735034;-79
2023/08/30 18:07:20;;;;;;;;;3.00;3.00;;;;;22.61;39.80;100867.28;2038255;27;2740419;-79
2023/08/30 18:08:31;;;;;;;;;2.33;2.33;;;;;22.59;39.70;100874.59;2011033;27;2745080;-79
2023/08/30 18:09:43;;;;;;;;;2.75;2.75;;;;;22.58;39.92;100873.75;2052440;27;2731987;-78
2023/08/30 18:10:53;;;;;;;;;3.33;3.33;;;;;22.59;40.28;100886.16;2028149;28;2737114;-78
2023/08/30 18:12:05;;;;;;;;;4.33;3.00;;;;;22.60;40.02;100887.00;2044844;27;2746099;-79
2023/08/30 18:13:15;;;;;;;;;3.00;3.00;;;;;22.59;39.94;100874.59;2027632;27;2744122;-79
2023/08/30 18:14:26;;;;;;;;;3.00;3.00;;;;;22.60;39.96;100873.63;2053804;27;2734666;-79
2023/08/30 18:15:37;;;;;;;;;4.00;2.00;;;;;22.62;40.05;100876.19;2035474;27;2736749;-79
2023/08/30 18:16:47;;;;;;;;;3.33;3.00;;;;;22.62;39.87;100870.81;2036493;27;2737804;-79
2023/08/30 18:17:59;;;;;;;;;5.00;3.00;;;;;22.63;40.07;100872.50;2059642;27;2735721;-79
2023/08/30 18:19:10;;;;;;;;;4.00;4.00;;;;;22.63;40.41;100869.84;2031336;27;2754480;-79
2023/08/30 18:20:21;;;;;;;;;5.00;3.67;;;;;22.63;39.91;100869.84;2051420;27;2746255;-79
2023/08/30 18:21:34;;;;;;;;;3.25;2.75;;;;;22.62;39.18;100870.81;2060242;27;2732565;-79
2023/08/30 18:22:44;;;;;;;;;6.67;4.67;;;;;22.57;39.79;100872.03;2033930;27;2750341;-79
2023/08/30 18:24:19;;;;;;;;;4.67;4.67;;;;;22.53;39.76;100877.78;2048904;27;2746141;-78
2023/08/30 18:25:30;;;;;;;;;6.00;4.33;;;;;22.49;39.33;100878.03;2026480;27;2745166;-79
2023/08/30 18:26:41;;;;;;;;;5.00;4.67;;;;;22.44;39.23;100874.03;2043102;28;2747231;-79
2023/08/30 18:27:52;;;;;;;;;3.25;3.00;;;;;22.39;39.83;100881.59;2057732;27;2733607;-79
2023/08/30 18:29:05;;;;;;;;;6.00;2.33;;;;;22.34;40.15;100882.81;2034352;27;2750462;-80
2023/08/30 18:30:15;;;;;;;;;3.00;3.00;;;;;22.29;40.53;100889.53;2033883;27;2731634;-79
2023/08/30 18:31:27;;;;;;;;;3.67;2.67;;;;;22.25;40.59;100879.06;2046116;27;2741996;-79
2023/08/30 18:32:37;;;;;;;;;7.33;3.00;;;;;22.25;40.25;100884.41;2022041;27;2751113;-78
2023/08/30 18:33:48;;;;;;;;;3.00;3.00;;;;;22.23;40.34;100891.72;2049179;27;2734669;-78
2023/08/30 18:34:59;;;;;;;;;6.00;4.33;;;;;22.22;40.27;100891.84;2028889;27;2738863;-79
2023/08/30 18:36:10;;;;;;;;;3.00;3.00;;;;;22.22;40.58;100892.72;2058702;27;2736800;-79
2023/08/30 18:37:20;;;;;;;;;4.33;4.00;;;;;22.22;40.06;100895.38;2010889;27;2752446;-79
2023/08/30 18:38:31;;;;;;;;;5.00;3.00;;;;;22.21;40.48;100888.31;2050301;27;2748203;-79
2023/08/30 18:39:42;;;;;;;;;3.00;3.00;;;;;22.21;40.01;100896.34;2046959;27;2744108;-79
2023/08/30 18:40:54;;;;;;;;;5.75;4.75;;;;;22.16;40.10;100887.84;2056457;27;2740953;-78
2023/08/30 18:42:05;;;;;;;;;17.67;16.00;;;;;22.12;40.20;100891.75;2032317;27;3555550;-79
2023/08/30 18:43:15;;;;;;;;;4.33;4.33;;;;;22.12;40.20;100894.41;2004809;27;2740935;-80
2023/08/30 18:44:27;;;;;;;;;16.00;13.25;;;;;22.10;40.68;100891.03;2063001;27;1844671;-79
2023/08/30 18:45:45;;;;;;;;;7.00;7.00;;;;;22.09;40.35;100889.31;2031987;27;3448200;-80
2023/08/30 18:46:58;;;;;;;;;5.67;5.50;;;;;22.10;40.45;100899.03;2053381;28;2745149;-79
2023/08/30 18:48:08;;;;;;;;;5.67;5.67;;;;;22.08;40.58;100899.16;2003995;27;2743628;-76
2023/08/30 18:49:21;;;;;;;;;10.67;9.67;;;;;22.08;40.10;100903.66;2059943;27;1824300;-79
2023/08/30 18:50:32;;;;;;;;;8.25;6.75;;;;;22.07;40.01;100910.00;2046415;27;1818100;-81
2023/08/30 18:51:42;;;;;;;;;7.00;7.00;;;;;22.06;40.46;100905.59;2029557;27;3449250;-80
2023/08/30 18:52:53;;;;;;;;;7.00;6.00;;;;;22.04;40.02;100905.72;2049606;27;2736727;-80
2023/08/30 18:54:06;;;;;;;;;8.50;5.75;;;;;22.03;40.58;100907.53;2058053;27;1815922;-80
2023/08/30 18:55:16;;;;;;;;;11.00;11.00;;;;;22.03;40.60;100902.19;2024481;27;2787811;-80
2023/08/30 18:56:27;;;;;;;;;5.67;5.00;;;;;22.03;40.38;100912.03;2017232;27;3448134;-79
2023/08/30 18:57:38;;;;;;;;;7.00;7.00;;;;;22.00;39.93;100905.09;2052097;27;2734675;-80
2023/08/30 18:58:49;;;;;;;;;5.00;5.00;;;;;21.99;39.61;100911.44;2004656;28;3449318;-80
2023/08/30 19:00:05;;;;;;;;;6.00;6.00;;;;;21.97;39.70;100907.19;2052087;27;2735689;-79
2023/08/30 19:01:18;;;;;;;;;6.33;6.00;;;;;21.94;40.25;100912.78;2057319;27;2735861;-80
2023/08/30 19:02:29;;;;;;;;;5.00;5.00;;;;;21.94;40.67;100916.31;2009594;27;2752754;-80
2023/08/30 19:03:41;;;;;;;;;6.00;3.00;;;;;21.94;40.36;100913.63;2053013;27;2740891;-79
2023/08/30 19:04:54;;;;;;;;;6.50;5.67;;;;;21.94;40.23;100919.00;2056338;27;2732605;-79
2023/08/30 19:06:06;;;;;;;;;8.33;5.00;;;;;21.94;40.26;100919.00;2009023;27;2739892;-80
2023/08/30 19:07:20;;;;;;;;;3.33;3.17;;;;;21.92;40.02;100920.94;2059794;27;2732570;-79
2023/08/30 19:08:31;;;;;;;;;8.00;8.00;;;;;21.91;39.97;100920.09;2004808;27;3457536;-80
2023/08/30 19:09:42;;;;;;;;;5.00;5.00;;;;;21.90;40.17;100925.56;2031430;27;2748222;-79
2023/08/30 19:10:55;;;;;;;;;6.00;6.00;;;;;21.87;40.09;100929.31;2056662;27;2730824;-80
2023/08/30 19:12:08;;;;;;;;;8.00;6.33;;;;;21.87;40.16;100923.97;2030916;27;2729453;-80
2023/08/30 19:13:21;;;;;;;;;6.00;6.00;;;;;21.87;40.76;100923.13;2037587;27;2745077;-80
2023/08/30 19:14:32;;;;;;;;;7.00;5.33;;;;;21.85;40.00;100925.03;2007073;27;2744116;-80
2023/08/30 19:15:43;;;;;;;;;9.67;6.00;;;;;21.84;40.45;100928.66;2050931;27;2750370;-79
2023/08/30 19:16:54;;;;;;;;;6.00;6.00;;;;;21.81;40.34;100935.97;2057618;27;2732581;-80
2023/08/30 19:18:05;;;;;;;;;6.67;6.67;;;;;21.77;39.82;100937.19;2007044;27;3441986;-79
2023/08/30 19:19:16;;;;;;;;;5.00;5.00;;;;;21.75;40.15;100941.81;2042910;27;2746111;-80
2023/08/30 19:20:28;;;;;;;;;7.67;6.33;;;;;21.72;40.69;100951.88;2051098;27;2739857;-80
2023/08/30 19:21:40;;;;;;;;;6.00;6.00;;;;;21.68;40.39;100945.94;2005739;27;3463798;-80
2023/08/30 19:22:53;;;;;;;;;8.00;6.50;;;;;21.65;40.79;100940.81;2053684;27;2737766;-80
2023/08/30 19:24:04;;;;;;;;;13.00;11.00;;;;;21.61;41.03;100948.22;2001522;27;2794013;-80
2023/08/30 19:25:16;;;;;;;;;13.20;12.60;;;;;21.58;41.10;100951.16;2019963;27;3538783;-79
2023/08/30 19:26:29;;;;;;;;;12.00;8.00;;;;;21.56;41.44;100947.72;2037327;27;2773224;-80
2023/08/30 19:27:41;;;;;;;;;8.50;7.50;;;;;21.53;40.94;100948.78;2007656;27;2740893;-80
2023/08/30 19:28:52;;;;;;;;;16.50;13.50;;;;;21.53;41.09;100946.13;2006090;27;2805612;-80
2023/08/30 19:30:04;;;;;;;;;8.25;7.00;;;;;21.53;41.05;100954.16;2038134;27;1831658;-80
2023/08/30 19:31:14;;;;;;;;;8.00;6.67;;;;;21.50;40.99;100946.38;2026767;27;3443455;-80
2023/08/30 19:32:27;;;;;;;;;11.83;11.00;;;;;21.50;41.03;100953.53;2062065;27;2787760;-79
2023/08/30 19:33:38;;;;;;;;;8.67;4.67;;;;;21.46;40.88;100956.44;2016456;27;2743029;-79
2023/08/30 19:34:49;;;;;;;;;5.00;3.33;;;;;21.44;41.16;100950.38;2039371;27;2752467;-79
2023/08/30 19:36:02;;;;;;;;;5.60;5.60;;;;;21.42;41.92;100951.44;2054884;27;2729436;-80
2023/08/30 19:37:12;;;;;;;;;7.67;7.00;;;;;21.42;42.08;100951.44;2035154;27;2738908;-80
2023/08/30 19:38:24;;;;;;;;;7.00;6.00;;;;;21.39;41.83;100949.88;2072492;27;1817966;-79
2023/08/30 19:39:35;;;;;;;;;12.00;10.00;;;;;21.37;41.61;100949.13;2026514;27;2787767;-80
2023/08/30 19:40:51;;;;;;;;;8.75;6.00;;;;;21.34;41.43;100950.22;2031080;27;2730454;-80
2023/08/30 19:42:02;;;;;;;;;8.33;6.33;;;;;21.32;41.22;100945.94;2033007;27;3445017;-80
2023/08/30 19:43:13;;;;;;;;;7.25;7.00;;;;;21.30;42.00;100953.25;2047570;27;1823274;-80
2023/08/30 19:44:26;;;;;;;;;8.00;6.17;;;;;21.28;41.84;100950.69;2058780;27;2731556;-80
2023/08/30 19:45:37;;;;;;;;;6.00;5.00;;;;;21.23;41.94;100947.50;2009325;27;3455473;-80
2023/08/30 19:46:48;;;;;;;;;9.33;6.00;;;;;21.20;41.70;100945.06;2049329;27;3445053;-80
2023/08/30 19:48:00;;;;;;;;;6.00;6.00;;;;;21.17;42.37;100953.31;2065122;27;2735148;-80
2023/08/30 19:49:10;;;;;;;;;16.50;13.50;;;;;21.12;42.46;100945.63;2037744;27;2810067;-79
2023/08/30 19:50:22;;;;;;;;;18.40;17.80;;;;;21.07;43.08;100948.66;2028181;27;3573149;-80
2023/08/30 19:51:33;;;;;;;;;11.00;10.00;;;;;21.00;42.93;100955.41;2040383;27;2784661;-80
2023/08/30 19:52:46;;;;;;;;;10.00;8.50;;;;;20.94;43.36;100956.69;2025935;27;2759611;-79
2023/08/30 19:53:56;;;;;;;;;3.33;3.00;;;;;20.88;43.12;100955.34;2028154;27;3470470;-79
2023/08/30 19:55:08;;;;;;;;;7.33;6.00;;;;;20.85;42.46;100957.38;2048113;27;2742986;-79
2023/08/30 19:56:19;;;;;;;;;7.00;7.00;;;;;20.77;43.43;100958.78;2033694;27;2738828;-79
2023/08/30 19:57:30;;;;;;;;;7.67;6.33;;;;;20.76;43.74;100953.56;2032953;27;3446114;-79
2023/08/30 19:58:41;;;;;;;;;9.00;5.00;;;;;20.71;43.95;100953.06;2034281;27;2739833;-79
2023/08/30 19:59:54;;;;;;;;;4.00;4.00;;;;;20.65;43.84;100949.00;2056083;27;2735694;-79
2023/08/30 20:01:05;;;;;;;;;6.67;5.67;;;;;20.59;44.25;100958.34;2011670;27;2734645;-80
2023/08/30 20:02:17;;;;;;;;;8.50;8.00;;;;;20.53;44.41;100956.94;2040573;27;1819230;-79
2023/08/30 20:03:27;;;;;;;;;6.00;6.00;;;;;20.50;44.64;100967.00;2026378;27;3452328;-80
2023/08/30 20:04:38;;;;;;;;;3.67;2.33;;;;;20.44;44.66;100963.81;2054025;27;2737801;-79
2023/08/30 20:05:51;;;;;;;;;10.33;6.00;;;;;20.38;44.90;100974.91;2003523;27;3472155;-80
2023/08/30 20:07:04;;;;;;;;;8.00;6.50;;;;;20.32;44.83;100965.53;2052492;27;2738866;-79
2023/08/30 20:08:16;;;;;;;;;7.33;6.33;;;;;20.26;45.10;100967.78;2003033;27;2738899;-79
2023/08/30 20:09:32;;;;;;;;;7.50;6.17;;;;;20.21;45.38;100973.44;2058216;27;2727361;-79
2023/08/30 20:10:43;;;;;;;;;6.00;6.00;;;;;20.16;45.23;100970.25;2009742;27;2742996;-79
2023/08/30 20:11:57;;;;;;;;;4.33;4.33;;;;;20.10;45.68;100967.00;2052138;27;2736509;-80
2023/08/30 20:13:11;;;;;;;;;4.33;4.33;;;;;20.05;45.66;100969.16;2035525;27;2733706;-79
2023/08/30 20:14:21;;;;;;;;;5.00;4.67;;;;;20.00;45.71;100966.81;2008840;27;2749331;-79
2023/08/30 20:15:32;;;;;;;;;6.67;6.00;;;;;19.96;46.32;100976.00;2057821;27;2738805;-79
2023/08/30 20:16:42;;;;;;;;;7.67;6.33;;;;;19.93;46.11;100972.69;2003796;27;2739992;-79
2023/08/30 20:17:54;;;;;;;;;5.00;5.00;;;;;19.87;46.30;100976.63;2068843;27;1810702;-80
2023/08/30 20:19:05;;;;;;;;;6.00;6.00;;;;;19.79;46.50;100970.03;2007131;27;2746106;-79
2023/08/30 20:20:16;;;;;;;;;7.25;6.00;;;;;19.74;46.70;100973.94;2046441;27;2737769;-80
2023/08/30 20:21:27;;;;;;;;;7.00;6.00;;;;;19.68;47.43;100973.41;2007044;27;2737841;-79
2023/08/30 20:22:40;;;;;;;;;8.00;6.25;;;;;19.65;47.37;100976.31;2054024;27;2741948;-80
2023/08/30 20:23:54;;;;;;;;;6.00;6.00;;;;;19.61;47.25;100987.25;2058243;27;2739853;-80
2023/08/30 20:25:04;;;;;;;;;9.67;7.33;;;;;19.55;47.75;100978.75;2007857;27;3466933;-79
2023/08/30 20:26:20;;;;;;;;;8.60;5.80;;;;;19.50;47.56;100980.88;2053860;27;2732612;-80
2023/08/30 20:27:31;;;;;;;;;6.00;6.00;;;;;19.44;47.83;100982.13;2029909;27;2734629;-79
2023/08/30 20:28:45;;;;;;;;;5.67;5.67;;;;;19.40;47.80;100988.63;2054220;27;1812794;-80
2023/08/30 20:29:56;;;;;;;;;7.00;7.00;;;;;19.38;48.13;100982.53;2010470;27;2733672;-79
2023/08/30 20:31:09;;;;;;;;;7.00;6.67;;;;;19.36;48.19;100989.75;2025984;27;2732542;-79
2023/08/30 20:32:21;;;;;;;;;9.33;7.00;;;;;19.35;48.29;100988.06;2023057;27;2742037;-79
2023/08/30 20:33:31;;;;;;;;;8.00;6.67;;;;;19.33;47.86;100987.31;2042772;27;1821151;-79
2023/08/30 20:34:44;;;;;;;;;7.33;5.67;;;;;19.30;48.53;100991.03;2025834;27;2748292;-80
2023/08/30 20:35:58;;;;;;;;;6.17;5.50;;;;;19.27;48.46;100990.38;2054925;27;2724264;-80
2023/08/30 20:37:11;;;;;;;;;6.67;6.67;;;;;19.25;48.67;100993.16;2031399;27;2742994;-79
2023/08/30 20:38:26;;;;;;;;;5.33;5.33;;;;;19.23;48.86;100997.75;2032977;27;2740922;-79
2023/08/30 20:39:39;;;;;;;;;6.00;6.00;;;;;19.18;48.96;100992.72;2030969;28;2732575;-80
2023/08/30 20:40:50;;;;;;;;;8.67;6.00;;;;;19.17;48.85;101003.41;2005973;27;2743028;-80
2023/08/30 20:42:01;;;;;;;;;8.50;6.50;;;;;19.15;48.46;101000.00;2046989;27;2476334;-80
2023/08/30 20:43:12;;;;;;;;;7.67;6.67;;;;;19.12;48.37;101004.59;2044965;27;3450206;-79
2023/08/30 20:44:23;;;;;;;;;10.33;6.67;;;;;19.15;48.25;101008.00;2042757;27;3471105;-79
2023/08/30 20:45:34;;;;;;;;;7.25;6.00;;;;;19.17;48.52;101008.75;2061262;27;1812825;-79
2023/08/30 20:46:45;;;;;;;;;9.50;8.00;;;;;19.17;48.85;101008.75;2029601;27;2756526;-79
2023/08/30 20:47:56;;;;;;;;;6.67;6.00;;;;;19.19;49.04;101002.41;2045714;27;3449733;-79
2023/08/30 20:49:07;;;;;;;;;9.00;7.33;;;;;19.20;49.09;101001.47;2059809;27;1821212;-79
2023/08/30 20:50:17;;;;;;;;;4.00;2.33;;;;;19.19;48.70;101002.41;2013198;27;2744634;-80
2023/08/30 20:51:28;;;;;;;;;9.00;7.33;;;;;19.20;48.40;101003.25;2063729;27;1825344;-79
2023/08/30 20:52:41;;;;;;;;;7.33;6.50;;;;;19.22;48.78;101004.88;2037782;27;2730542;-80
2023/08/30 20:53:53;;;;;;;;;6.00;6.00;;;;;19.23;49.17;101003.06;2014976;27;3451279;-79
2023/08/30 20:55:06;;;;;;;;;8.33;6.00;;;;;19.26;49.24;101004.69;2032998;27;3454903;-79
2023/08/30 20:56:18;;;;;;;;;9.25;8.75;;;;;19.26;49.06;101002.84;2047021;27;1825477;-80
2023/08/30 20:57:28;;;;;;;;;7.00;7.00;;;;;19.24;49.21;100996.75;2018574;28;2744070;-80
2023/08/30 20:58:43;;;;;;;;;7.67;7.00;;;;;19.26;49.26;100996.69;2037970;28;3441943;-79
2023/08/30 20:59:57;;;;;;;;;8.33;7.33;;;;;19.27;49.79;101003.69;2058206;27;2733614;-79
2023/08/30 21:01:08;;;;;;;;;7.00;7.00;;;;;19.27;49.77;100999.22;2025582;27;1814394;-79
2023/08/30 21:02:21;;;;;;;;;7.00;5.83;;;;;19.29;49.24;100999.97;2040331;27;2722200;-79
2023/08/30 21:03:32;;;;;;;;;11.33;7.33;;;;;19.32;49.57;101010.44;2007962;27;3481524;-80
2023/08/30 21:04:43;;;;;;;;;5.67;5.67;;;;;19.35;49.39;101009.38;2047013;27;2739874;-79
2023/08/30 21:05:54;;;;;;;;;5.00;5.00;;;;;19.34;49.25;101010.34;2048764;27;2750296;-79
2023/08/30 21:07:05;;;;;;;;;8.67;5.33;;;;;19.33;49.23;101005.97;2060876;27;2742977;-80
2023/08/30 21:08:15;;;;;;;;;5.00;5.00;;;;;19.36;49.21;101004.94;2001715;28;3454399;-80
2023/08/30 21:09:26;;;;;;;;;5.33;5.00;;;;;19.42;49.59;101007.16;2041064;27;2742996;-80
2023/08/30 21:10:37;;;;;;;;;5.33;4.67;;;;;19.47;49.18;101006.84;2060366;27;2735691;-79
2023/08/30 21:11:49;;;;;;;;;4.75;3.75;;;;;19.53;49.02;101014.47;2018447;28;1811811;-79
2023/08/30 21:12:59;;;;;;;;;3.67;3.33;;;;;19.54;48.76;101010.81;2026037;28;2750303;-79
2023/08/30 21:14:12;;;;;;;;;7.00;4.00;;;;;19.57;48.30;101018.63;2054375;27;2741987;-80
2023/08/30 21:15:23;;;;;;;;;4.00;4.00;;;;;19.60;48.17;101018.41;2025596;28;3467997;-79
2023/08/30 21:16:34;;;;;;;;;5.67;5.67;;;;;19.65;48.79;101018.09;2028773;27;2748252;-80
2023/08/30 21:17:45;;;;;;;;;5.00;4.00;;;;;19.71;48.92;101019.47;2039013;27;2741928;-81
2023/08/30 21:18:56;;;;;;;;;6.00;4.00;;;;;19.73;48.37;101010.41;2047184;27;2746094;-79
2023/08/30 21:20:07;;;;;;;;;5.00;5.00;;;;;19.73;48.95;101015.75;2048470;27;2742978;-80
2023/08/30 21:21:18;;;;;;;;;6.67;5.00;;;;;19.73;48.82;101017.59;2038231;27;2748211;-80
2023/08/30 21:22:28;;;;;;;;;6.00;5.33;;;;;19.73;48.37;101022.94;2026611;28;2741033;-79
2023/08/30 21:23:39;;;;;;;;;5.33;5.00;;;;;19.76;48.68;101015.56;2044579;27;2743012;-80
2023/08/30 21:24:50;;;;;;;;;5.00;3.33;;;;;19.79;48.87;101018.03;2042787;27;2754466;-79
2023/08/30 21:26:02;;;;;;;;;5.33;4.33;;;;;19.84;48.47;101014.19;2048225;27;2752530;-79
2023/08/30 21:27:16;;;;;;;;;7.00;6.33;;;;;19.85;48.65;101018.56;2052398;27;2739859;-80
2023/08/30 21:28:31;;;;;;;;;4.83;4.83;;;;;19.86;48.87;101028.25;2020368;28;2739927;-81
2023/08/30 21:29:42;;;;;;;;;4.00;4.00;;;;;19.89;48.52;101018.25;1999394;28;2738883;-79
2023/08/30 21:30:53;;;;;;;;;5.00;4.00;;;;;19.92;48.78;101021.66;2054864;27;2744023;-82
2023/08/30 21:32:04;;;;;;;;;9.67;5.00;;;;;19.92;48.81;101022.53;2004034;28;2756585;-76
2023/08/30 21:33:16;;;;;;;;;6.00;4.00;;;;;19.92;48.64;101022.53;2018866;28;2746120;-87
2023/08/30 21:34:26;;;;;;;;;5.00;4.00;;;;;19.94;48.68;101017.94;2022154;27;2752445;-79
2023/08/30 21:35:39;;;;;;;;;6.33;6.33;;;;;19.94;48.63;101019.75;2051944;27;2747151;-79
2023/08/30 21:36:49;;;;;;;;;5.67;5.33;;;;;19.96;48.80;101015.16;2028361;27;2740957;-78
2023/08/30 21:38:00;;;;;;;;;4.00;4.00;;;;;19.98;48.66;101018.56;2044963;27;2745151;-82
2023/08/30 21:39:13;;;;;;;;;7.33;5.67;;;;;19.99;48.29;101017.63;2054968;27;2734678;-80
2023/08/30 21:40:26;;;;;;;;;5.67;5.17;;;;;20.01;48.60;101021.03;2035162;27;2726370;-77
2023/08/30 21:41:37;;;;;;;;;5.00;3.33;;;;;20.04;48.63;101014.63;1996998;27;3465921;-81
2023/08/30 21:42:48;;;;;;;;;7.67;4.67;;;;;20.06;48.07;101026.03;2055054;27;2739195;-80
2023/08/30 21:44:01;;;;;;;;;9.17;7.00;;;;;20.08;48.25;101016.09;2036586;27;2737923;-80
2023/08/30 21:45:11;;;;;;;;;4.67;4.67;;;;;20.11;47.90;101021.28;2004901;27;2740922;-81
2023/08/30 21:46:22;;;;;;;;;7.00;6.00;;;;;20.12;47.56;101029.16;2040943;27;2740219;-80
2023/08/30 21:47:33;;;;;;;;;4.00;4.00;;;;;20.12;47.47;101023.00;2037961;28;2740913;-80
2023/08/30 21:48:44;;;;;;;;;5.00;5.00;;;;;20.13;47.53;101022.88;2037334;28;3459616;-80
2023/08/30 21:49:58;;;;;;;;;6.50;5.00;;;;;20.15;47.40;101022.75;2051768;27;2746530;-80
2023/08/30 21:51:08;;;;;;;;;4.00;4.00;;;;;20.15;47.74;101022.75;2019992;28;2741018;-80
2023/08/30 21:52:19;;;;;;;;;4.67;4.00;;;;;20.16;47.68;101026.28;2047137;27;2733706;-79
2023/08/30 21:53:30;;;;;;;;;3.00;3.00;;;;;20.17;47.43;101028.88;2043961;27;2754545;-79
2023/08/30 21:54:42;;;;;;;;;8.00;6.25;;;;;20.18;47.40;101029.69;2058024;27;2732599;-79
2023/08/30 21:55:55;;;;;;;;;5.67;5.00;;;;;20.17;47.41;101028.88;2060958;27;2737778;-79
2023/08/30 21:57:06;;;;;;;;;6.00;6.00;;;;;20.17;47.30;101022.66;2011638;27;2752463;-79
2023/08/30 21:58:17;;;;;;;;;7.00;5.00;;;;;20.19;47.51;101023.41;2048877;27;3461710;-79
2023/08/30 21:59:28;;;;;;;;;5.00;5.00;;;;;20.21;47.87;101022.34;2030040;27;3462348;-79
2023/08/30 22:00:38;;;;;;;;;5.00;4.33;;;;;20.23;48.04;101020.41;2050375;27;2750333;-79